createdAt,value
2017-09-10T00:00:17.917Z,995.60
2017-09-10T00:01:05.716Z,995.55
2017-09-10T00:01:54.755Z,995.61
2017-09-10T00:02:42.743Z,995.62
2017-09-10T00:03:30.798Z,995.61
2017-09-10T00:04:19.880Z,995.62
2017-09-10T00:05:07.807Z,995.60
2017-09-10T00:05:56.361Z,995.61
2017-09-10T00:06:45.216Z,995.59
2017-09-10T00:07:32.893Z,995.59
2017-09-10T00:08:21.107Z,995.58
2017-09-10T00:09:09.100Z,995.54
2017-09-10T00:09:57.121Z,995.55
2017-09-10T00:10:45.618Z,995.54
2017-09-10T00:11:33.202Z,995.55
2017-09-10T00:12:21.169Z,995.59
2017-09-10T00:13:15.291Z,995.59
2017-09-10T00:14:03.329Z,995.60
2017-09-10T00:14:51.308Z,995.60
2017-09-10T00:15:40.400Z,995.55
2017-09-10T00:16:28.660Z,995.59
2017-09-10T00:17:17.495Z,995.59
2017-09-10T00:18:05.482Z,995.65
2017-09-10T00:18:53.669Z,995.64
2017-09-10T00:19:42.609Z,995.63
2017-09-10T00:20:30.776Z,995.60
2017-09-10T00:21:18.641Z,995.63
2017-09-10T00:22:07.835Z,995.66
2017-09-10T00:22:55.771Z,995.63
2017-09-10T00:23:43.811Z,995.64
2017-09-10T00:24:32.791Z,995.65
2017-09-10T00:25:20.853Z,995.65
2017-09-10T00:26:08.937Z,995.62
2017-09-10T00:26:58.015Z,995.65
2017-09-10T00:27:46.013Z,995.66
2017-09-10T00:28:34.135Z,995.65
2017-09-10T00:29:23.069Z,995.66
2017-09-10T00:30:11.170Z,995.66
2017-09-10T00:30:59.215Z,995.63
2017-09-10T00:31:48.414Z,995.64
2017-09-10T00:32:36.354Z,995.64
2017-09-10T00:33:24.245Z,995.63
2017-09-10T00:34:13.380Z,995.69
2017-09-10T00:35:01.397Z,995.68
2017-09-10T00:35:49.650Z,995.65
2017-09-10T00:36:37.501Z,995.65
2017-09-10T00:37:26.495Z,995.64
2017-09-10T00:38:14.531Z,995.68
2017-09-10T00:39:03.607Z,995.63
2017-09-10T00:39:51.690Z,995.65
2017-09-10T00:40:39.811Z,995.64
2017-09-10T00:41:28.770Z,995.64
2017-09-10T00:42:16.716Z,995.64
2017-09-10T00:43:04.736Z,995.68
2017-09-10T00:43:53.846Z,995.61
2017-09-10T00:44:41.877Z,995.63
2017-09-10T00:45:30.272Z,995.61
2017-09-10T00:46:18.994Z,995.59
2017-09-10T00:47:07.189Z,995.59
2017-09-10T00:47:55.041Z,995.59
2017-09-10T00:48:44.114Z,995.62
2017-09-10T00:49:32.116Z,995.64
2017-09-10T00:50:20.131Z,995.68
2017-09-10T00:51:09.186Z,995.67
2017-09-10T00:51:57.240Z,995.70
2017-09-10T00:52:45.249Z,995.71
2017-09-10T00:53:34.772Z,995.69
2017-09-10T00:54:22.339Z,995.75
2017-09-10T00:55:10.523Z,995.73
2017-09-10T00:55:59.492Z,995.75
2017-09-10T00:56:47.436Z,995.77
2017-09-10T00:57:35.889Z,995.74
2017-09-10T00:58:23.510Z,995.75
2017-09-10T00:59:12.541Z,995.74
2017-09-10T01:00:00.617Z,995.76
2017-09-10T01:00:50.077Z,995.77
2017-09-10T01:01:37.705Z,995.76
2017-09-10T01:02:26.030Z,995.77
2017-09-10T01:03:14.732Z,995.80
2017-09-10T01:04:02.941Z,995.75
2017-09-10T01:04:50.823Z,995.79
2017-09-10T01:05:40.156Z,995.81
2017-09-10T01:06:28.329Z,995.75
2017-09-10T01:07:15.983Z,995.77
2017-09-10T01:08:05.007Z,995.76
2017-09-10T01:08:53.009Z,995.78
2017-09-10T01:09:41.081Z,995.79
2017-09-10T01:10:30.350Z,995.74
2017-09-10T01:11:18.213Z,995.72
2017-09-10T01:12:06.280Z,995.76
2017-09-10T01:12:55.526Z,995.72
2017-09-10T01:13:43.312Z,995.72
2017-09-10T01:14:31.398Z,995.75
2017-09-10T01:15:20.286Z,995.75
2017-09-10T01:16:08.284Z,995.80
2017-09-10T01:16:56.445Z,995.78
2017-09-10T01:17:45.752Z,995.83
2017-09-10T01:18:39.453Z,995.79
2017-09-10T01:19:28.592Z,995.82
2017-09-10T01:20:24.058Z,995.84
2017-09-10T01:21:17.623Z,995.82
2017-09-10T01:22:05.714Z,995.81
2017-09-10T01:22:59.672Z,995.85
2017-09-10T01:23:53.748Z,995.85
2017-09-10T01:24:41.744Z,995.87
2017-09-10T01:25:29.849Z,995.86
2017-09-10T01:26:17.886Z,995.90
2017-09-10T01:27:17.788Z,995.89
2017-09-10T01:28:11.966Z,995.90
2017-09-10T01:29:06.038Z,995.94
2017-09-10T01:30:05.915Z,995.93
2017-09-10T01:30:55.142Z,995.99
2017-09-10T01:31:49.045Z,995.97
2017-09-10T01:32:38.056Z,995.97
2017-09-10T01:33:26.123Z,995.97
2017-09-10T01:34:20.427Z,995.96
2017-09-10T01:35:08.232Z,995.97
2017-09-10T01:35:57.756Z,995.96
2017-09-10T01:36:45.247Z,995.98
2017-09-10T01:37:33.782Z,995.95
2017-09-10T01:38:22.328Z,995.96
2017-09-10T01:39:10.322Z,995.96
2017-09-10T01:39:59.489Z,995.97
2017-09-10T01:40:48.488Z,995.99
2017-09-10T01:41:37.517Z,995.98
2017-09-10T01:42:25.519Z,995.95
2017-09-10T01:43:19.577Z,995.94
2017-09-10T01:44:07.736Z,995.98
2017-09-10T01:45:01.623Z,995.96
2017-09-10T01:45:55.660Z,995.97
2017-09-10T01:46:49.733Z,996.05
2017-09-10T01:47:37.841Z,996.01
2017-09-10T01:48:31.737Z,996.04
2017-09-10T01:49:19.925Z,996.05
2017-09-10T01:50:08.322Z,996.05
2017-09-10T01:50:57.077Z,996.07
2017-09-10T01:51:44.943Z,996.08
2017-09-10T01:52:33.061Z,996.11
2017-09-10T01:53:21.045Z,996.11
2017-09-10T01:54:10.120Z,996.06
2017-09-10T01:54:58.196Z,996.08
2017-09-10T01:55:47.376Z,996.05
2017-09-10T01:56:35.180Z,996.09
2017-09-10T01:57:29.290Z,996.09
2017-09-10T01:58:17.307Z,996.18
2017-09-10T01:59:11.259Z,996.18
2017-09-10T01:59:59.397Z,996.15
2017-09-10T02:00:53.409Z,996.15
2017-09-10T02:01:48.406Z,996.19
2017-09-10T02:02:36.474Z,996.19
2017-09-10T02:03:30.435Z,996.20
2017-09-10T02:04:18.508Z,996.20
2017-09-10T02:05:12.949Z,996.21
2017-09-10T02:06:00.905Z,996.20
2017-09-10T02:06:54.600Z,996.24
2017-09-10T02:07:42.648Z,996.28
2017-09-10T02:08:30.730Z,996.28
2017-09-10T02:09:18.736Z,996.28
2017-09-10T02:10:13.173Z,996.28
2017-09-10T02:11:01.768Z,996.23
2017-09-10T02:11:49.880Z,996.23
2017-09-10T02:12:38.879Z,996.21
2017-09-10T02:13:26.933Z,996.20
2017-09-10T02:14:15.010Z,996.20
2017-09-10T02:15:03.070Z,996.24
2017-09-10T02:15:52.328Z,996.22
2017-09-10T02:16:40.089Z,996.24
2017-09-10T02:17:28.207Z,996.22
2017-09-10T02:18:17.228Z,996.18
2017-09-10T02:19:05.245Z,996.21
2017-09-10T02:19:53.336Z,996.20
2017-09-10T02:20:42.315Z,996.22
2017-09-10T02:21:30.641Z,996.22
2017-09-10T02:22:18.366Z,996.25
2017-09-10T02:23:06.391Z,996.24
2017-09-10T02:23:54.469Z,996.22
2017-09-10T02:24:42.398Z,996.22
2017-09-10T02:25:30.974Z,996.25
2017-09-10T02:26:18.484Z,996.27
2017-09-10T02:27:07.654Z,996.27
2017-09-10T02:27:55.720Z,996.28
2017-09-10T02:28:43.662Z,996.30
2017-09-10T02:29:32.152Z,996.35
2017-09-10T02:30:20.714Z,996.38
2017-09-10T02:31:08.838Z,996.36
2017-09-10T02:31:57.797Z,996.42
2017-09-10T02:32:45.880Z,996.43
2017-09-10T02:33:34.015Z,996.46
2017-09-10T02:34:21.994Z,996.50
2017-09-10T02:35:10.984Z,996.47
2017-09-10T02:35:59.613Z,996.48
2017-09-10T02:36:48.581Z,996.48
2017-09-10T02:37:36.100Z,996.45
2017-09-10T02:38:24.234Z,996.45
2017-09-10T02:39:13.217Z,996.50
2017-09-10T02:40:01.248Z,996.50
2017-09-10T02:40:49.305Z,996.51
2017-09-10T02:41:38.294Z,996.48
2017-09-10T02:42:26.389Z,996.50
2017-09-10T02:43:14.339Z,996.52
2017-09-10T02:44:03.466Z,996.52
2017-09-10T02:44:51.416Z,996.53
2017-09-10T02:45:39.958Z,996.54
2017-09-10T02:46:28.590Z,996.56
2017-09-10T02:47:16.670Z,996.55
2017-09-10T02:48:04.716Z,996.60
2017-09-10T02:48:53.727Z,996.62
2017-09-10T02:49:41.757Z,996.57
2017-09-10T02:50:29.782Z,996.60
2017-09-10T02:51:18.831Z,996.59
2017-09-10T02:52:06.819Z,996.63
2017-09-10T02:52:54.895Z,996.65
2017-09-10T02:53:43.897Z,996.64
2017-09-10T02:54:32.117Z,996.62
2017-09-10T02:55:20.325Z,996.64
2017-09-10T02:56:09.029Z,996.64
2017-09-10T02:56:57.085Z,996.67
2017-09-10T02:57:45.156Z,996.64
2017-09-10T02:58:34.196Z,996.63
2017-09-10T02:59:22.308Z,996.66
2017-09-10T03:00:10.256Z,996.66
2017-09-10T03:00:59.786Z,996.64
2017-09-10T03:01:47.334Z,996.68
2017-09-10T03:02:35.337Z,996.68
2017-09-10T03:03:24.358Z,996.65
2017-09-10T03:04:12.505Z,996.68
2017-09-10T03:05:00.551Z,996.68
2017-09-10T03:05:49.862Z,996.68
2017-09-10T03:06:37.559Z,996.68
2017-09-10T03:07:25.636Z,996.67
2017-09-10T03:08:14.706Z,996.72
2017-09-10T03:09:02.667Z,996.73
2017-09-10T03:09:50.668Z,996.75
2017-09-10T03:10:40.218Z,996.72
2017-09-10T03:11:27.788Z,996.77
2017-09-10T03:12:15.970Z,996.74
2017-09-10T03:13:04.791Z,996.73
2017-09-10T03:13:52.859Z,996.75
2017-09-10T03:14:41.013Z,996.70
2017-09-10T03:15:30.044Z,996.70
2017-09-10T03:16:18.042Z,996.71
2017-09-10T03:17:06.101Z,996.75
2017-09-10T03:17:55.112Z,996.75
2017-09-10T03:18:43.125Z,996.73
2017-09-10T03:19:31.266Z,996.73
2017-09-10T03:20:20.415Z,996.78
2017-09-10T03:21:08.308Z,996.75
2017-09-10T03:21:56.298Z,996.80
2017-09-10T03:22:45.327Z,996.78
2017-09-10T03:23:33.360Z,996.77
2017-09-10T03:24:21.367Z,996.73
2017-09-10T03:25:10.438Z,996.71
2017-09-10T03:25:58.574Z,996.68
2017-09-10T03:26:46.719Z,996.69
2017-09-10T03:27:35.539Z,996.68
2017-09-10T03:28:23.692Z,996.68
2017-09-10T03:29:11.725Z,996.72
2017-09-10T03:30:00.804Z,996.70
2017-09-10T03:30:48.818Z,996.67
2017-09-10T03:31:36.773Z,996.73
2017-09-10T03:32:24.852Z,996.74
2017-09-10T03:33:13.880Z,996.73
2017-09-10T03:34:01.900Z,996.74
2017-09-10T03:34:49.901Z,996.77
2017-09-10T03:35:38.971Z,996.76
2017-09-10T03:36:26.993Z,996.74
2017-09-10T03:37:16.032Z,996.75
2017-09-10T03:38:04.163Z,996.75
2017-09-10T03:38:52.359Z,996.77
2017-09-10T03:39:41.208Z,996.71
2017-09-10T03:40:29.156Z,996.73
2017-09-10T03:41:17.253Z,996.73
2017-09-10T03:42:05.340Z,996.76
2017-09-10T03:42:53.361Z,996.74
2017-09-10T03:43:47.389Z,996.74
2017-09-10T03:44:36.496Z,996.71
2017-09-10T03:45:24.751Z,996.68
2017-09-10T03:46:12.427Z,996.69
2017-09-10T03:47:00.615Z,996.67
2017-09-10T03:47:54.591Z,996.66
2017-09-10T03:48:43.564Z,996.66
2017-09-10T03:49:31.851Z,996.66
2017-09-10T03:50:19.767Z,996.66
2017-09-10T03:51:08.669Z,996.67
2017-09-10T03:51:56.766Z,996.68
2017-09-10T03:52:44.753Z,996.67
2017-09-10T03:53:33.785Z,996.70
2017-09-10T03:54:21.953Z,996.66
2017-09-10T03:55:09.812Z,996.65
2017-09-10T03:55:58.993Z,996.66
2017-09-10T03:56:46.977Z,996.66
2017-09-10T03:57:35.016Z,996.65
2017-09-10T03:58:24.010Z,996.64
2017-09-10T03:59:12.332Z,996.69
2017-09-10T04:00:00.122Z,996.70
2017-09-10T04:00:49.197Z,996.74
2017-09-10T04:01:37.205Z,996.76
2017-09-10T04:02:25.247Z,996.76
2017-09-10T04:03:14.376Z,996.77
2017-09-10T04:04:02.350Z,996.75
2017-09-10T04:04:50.420Z,996.78
2017-09-10T04:05:39.394Z,996.80
2017-09-10T04:06:27.395Z,996.81
2017-09-10T04:07:15.576Z,996.79
2017-09-10T04:08:16.454Z,996.82
2017-09-10T04:09:17.478Z,996.77
2017-09-10T04:10:11.591Z,996.80
2017-09-10T04:11:11.610Z,996.79
2017-09-10T04:12:06.717Z,996.81
2017-09-10T04:13:01.860Z,996.80
2017-09-10T04:14:01.693Z,996.84
2017-09-10T04:14:56.733Z,996.84
2017-09-10T04:15:51.701Z,996.83
2017-09-10T04:16:51.734Z,996.86
2017-09-10T04:17:46.878Z,996.82
2017-09-10T04:18:41.915Z,996.85
2017-09-10T04:19:42.926Z,996.88
2017-09-10T04:20:44.271Z,996.84
2017-09-10T04:21:38.905Z,996.82
2017-09-10T04:22:32.993Z,996.87
2017-09-10T04:23:32.994Z,996.87
2017-09-10T04:24:33.006Z,996.85
2017-09-10T04:25:33.115Z,996.83
2017-09-10T04:26:39.068Z,996.85
2017-09-10T04:27:34.156Z,996.87
2017-09-10T04:28:34.113Z,996.84
2017-09-10T04:29:34.304Z,996.87
2017-09-10T04:30:40.250Z,996.88
2017-09-10T04:31:40.263Z,996.86
2017-09-10T04:32:40.386Z,996.89
2017-09-10T04:33:40.322Z,996.89
2017-09-10T04:34:34.357Z,996.92
2017-09-10T04:35:34.354Z,996.91
2017-09-10T04:36:29.371Z,996.98
2017-09-10T04:37:24.430Z,996.97
2017-09-10T04:38:24.409Z,997.01
2017-09-10T04:39:19.496Z,996.98
2017-09-10T04:40:14.382Z,996.98
2017-09-10T04:41:15.432Z,997.00
2017-09-10T04:42:15.491Z,996.94
2017-09-10T04:43:15.587Z,996.96
2017-09-10T04:44:10.663Z,996.94
2017-09-10T04:45:10.726Z,996.92
2017-09-10T04:46:10.688Z,996.95
2017-09-10T04:47:10.653Z,996.93
2017-09-10T04:48:10.728Z,996.97
2017-09-10T04:49:04.688Z,996.97
2017-09-10T04:50:04.716Z,996.96
2017-09-10T04:50:59.793Z,996.97
2017-09-10T04:51:59.826Z,997.01
2017-09-10T04:52:53.859Z,997.00
2017-09-10T04:53:53.917Z,997.05
2017-09-10T04:54:48.996Z,997.05
2017-09-10T04:55:49.009Z,997.09
2017-09-10T04:56:48.983Z,997.15
2017-09-10T04:57:49.019Z,997.14
2017-09-10T04:58:43.045Z,997.15
2017-09-10T04:59:43.135Z,997.22
2017-09-10T05:00:38.106Z,997.19
2017-09-10T05:01:32.163Z,997.19
2017-09-10T05:02:21.194Z,997.22
2017-09-10T05:03:10.336Z,997.20
2017-09-10T05:03:58.276Z,997.21
2017-09-10T05:04:59.368Z,997.25
2017-09-10T05:05:54.323Z,997.26
2017-09-10T05:06:48.433Z,997.27
2017-09-10T05:07:36.403Z,997.28
2017-09-10T05:08:30.401Z,997.30
2017-09-10T05:09:24.488Z,997.30
2017-09-10T05:10:12.585Z,997.32
2017-09-10T05:11:06.570Z,997.39
2017-09-10T05:12:06.541Z,997.39
2017-09-10T05:13:01.643Z,997.38
2017-09-10T05:13:56.676Z,997.39
2017-09-10T05:14:57.656Z,997.39
2017-09-10T05:15:58.797Z,997.38
2017-09-10T05:16:59.813Z,997.40
2017-09-10T05:17:54.751Z,997.39
2017-09-10T05:18:48.775Z,997.39
2017-09-10T05:19:48.777Z,997.39
2017-09-10T05:20:43.869Z,997.40
2017-09-10T05:21:38.966Z,997.40
2017-09-10T05:22:39.056Z,997.43
2017-09-10T05:23:33.987Z,997.40
2017-09-10T05:24:29.010Z,997.38
2017-09-10T05:25:23.509Z,997.37
2017-09-10T05:26:23.109Z,997.34
2017-09-10T05:27:18.068Z,997.34
2017-09-10T05:28:18.176Z,997.33
2017-09-10T05:29:19.079Z,997.33
2017-09-10T05:30:13.151Z,997.37
2017-09-10T05:31:13.287Z,997.35
2017-09-10T05:32:08.254Z,997.37
2017-09-10T05:33:03.188Z,997.41
2017-09-10T05:33:57.252Z,997.42
2017-09-10T05:34:58.364Z,997.41
2017-09-10T05:35:58.357Z,997.45
2017-09-10T05:36:58.494Z,997.49
2017-09-10T05:37:58.425Z,997.51
2017-09-10T05:38:58.438Z,997.58
2017-09-10T05:39:58.436Z,997.63
2017-09-10T05:40:52.602Z,997.64
2017-09-10T05:41:53.591Z,997.64
2017-09-10T05:42:53.601Z,997.64
2017-09-10T05:43:53.558Z,997.67
2017-09-10T05:44:53.569Z,997.65
2017-09-10T05:45:59.649Z,997.57
2017-09-10T05:46:53.748Z,997.61
2017-09-10T05:47:53.718Z,997.58
2017-09-10T05:48:47.741Z,997.63
2017-09-10T05:49:35.861Z,997.60
2017-09-10T05:50:35.773Z,997.66
2017-09-10T05:51:23.890Z,997.64
2017-09-10T05:52:17.902Z,997.67
2017-09-10T05:53:06.116Z,997.71
2017-09-10T05:53:53.985Z,997.69
2017-09-10T05:54:41.979Z,997.69
2017-09-10T05:55:31.047Z,997.73
2017-09-10T05:56:19.086Z,997.70
2017-09-10T05:57:08.064Z,997.71
2017-09-10T05:57:56.159Z,997.67
2017-09-10T05:58:45.282Z,997.73
2017-09-10T05:59:39.265Z,997.74
2017-09-10T06:00:28.391Z,997.75
2017-09-10T06:01:17.419Z,997.75
2017-09-10T06:02:05.447Z,997.75
2017-09-10T06:02:53.508Z,997.73
2017-09-10T06:03:53.463Z,997.77
2017-09-10T06:04:41.627Z,997.80
2017-09-10T06:05:29.642Z,997.78
2017-09-10T06:06:17.576Z,997.80
2017-09-10T06:07:06.656Z,997.80
2017-09-10T06:08:00.669Z,997.80
2017-09-10T06:08:55.798Z,997.80
2017-09-10T06:09:44.860Z,997.76
2017-09-10T06:10:32.769Z,997.78
2017-09-10T06:11:20.867Z,997.80
2017-09-10T06:12:09.838Z,997.83
2017-09-10T06:12:58.009Z,997.81
2017-09-10T06:13:51.967Z,997.78
2017-09-10T06:14:47.289Z,997.78
2017-09-10T06:15:42.044Z,997.78
2017-09-10T06:16:31.110Z,997.81
2017-09-10T06:17:19.155Z,997.84
2017-09-10T06:18:08.182Z,997.81
2017-09-10T06:18:57.221Z,997.81
2017-09-10T06:19:45.281Z,997.83
2017-09-10T06:20:39.432Z,997.84
2017-09-10T06:21:27.565Z,997.86
2017-09-10T06:22:27.386Z,997.92
2017-09-10T06:23:22.371Z,997.81
2017-09-10T06:24:28.495Z,997.83
2017-09-10T06:25:28.562Z,997.87
2017-09-10T06:26:29.631Z,997.88
2017-09-10T06:27:30.562Z,997.94
2017-09-10T06:28:30.549Z,997.95
2017-09-10T06:29:30.903Z,997.95
2017-09-10T06:30:30.656Z,997.99
2017-09-10T06:31:19.761Z,997.99
2017-09-10T06:32:14.759Z,997.98
2017-09-10T06:33:09.903Z,998.00
2017-09-10T06:34:04.906Z,998.05
2017-09-10T06:34:53.856Z,997.97
2017-09-10T06:35:47.874Z,998.05
2017-09-10T06:36:48.018Z,998.02
2017-09-10T06:37:35.988Z,998.00
2017-09-10T06:38:25.063Z,998.03
2017-09-10T06:39:20.014Z,998.04
2017-09-10T06:40:21.704Z,998.09
2017-09-10T06:41:10.134Z,998.03
2017-09-10T06:42:05.302Z,998.05
2017-09-10T06:42:59.266Z,998.04
2017-09-10T06:43:54.210Z,998.04
2017-09-10T06:44:49.399Z,998.04
2017-09-10T06:45:55.397Z,998.03
2017-09-10T06:46:49.930Z,998.04
2017-09-10T06:47:43.726Z,998.05
2017-09-10T06:48:31.897Z,997.98
2017-09-10T06:49:31.923Z,997.99
2017-09-10T06:50:25.973Z,998.03
2017-09-10T06:51:26.902Z,997.98
2017-09-10T06:52:21.969Z,997.98
2017-09-10T06:53:16.105Z,998.00
2017-09-10T06:54:16.088Z,997.90
2017-09-10T06:55:10.143Z,997.94
2017-09-10T06:55:57.918Z,997.93
2017-09-10T06:56:53.114Z,997.97
2017-09-10T06:57:46.971Z,997.98
2017-09-10T06:58:34.971Z,997.92
2017-09-10T06:59:23.173Z,997.89
2017-09-10T07:00:12.085Z,997.94
2017-09-10T07:01:01.342Z,997.86
2017-09-10T07:01:55.072Z,997.89
2017-09-10T07:02:55.114Z,997.90
2017-09-10T07:03:49.490Z,997.84
2017-09-10T07:04:43.629Z,997.86
2017-09-10T07:05:32.794Z,997.85
2017-09-10T07:06:26.795Z,997.89
2017-09-10T07:07:20.768Z,997.90
2017-09-10T07:08:15.798Z,997.94
2017-09-10T07:09:16.001Z,997.92
2017-09-10T07:10:10.896Z,997.97
2017-09-10T07:11:04.835Z,998.01
2017-09-10T07:11:59.029Z,997.99
2017-09-10T07:12:48.054Z,998.02
2017-09-10T07:13:42.113Z,997.92
2017-09-10T07:14:36.113Z,997.96
2017-09-10T07:15:30.320Z,997.94
2017-09-10T07:16:18.235Z,997.94
2017-09-10T07:17:12.365Z,997.97
2017-09-10T07:18:00.405Z,997.96
2017-09-10T07:19:00.423Z,997.99
2017-09-10T07:19:55.442Z,998.04
2017-09-10T07:20:50.452Z,997.96
2017-09-10T07:21:39.563Z,997.95
2017-09-10T07:22:39.610Z,998.00
2017-09-10T07:23:28.634Z,997.94
2017-09-10T07:24:17.607Z,997.96
2017-09-10T07:25:11.818Z,997.96
2017-09-10T07:26:11.766Z,998.02
2017-09-10T07:27:06.871Z,997.95
2017-09-10T07:28:00.964Z,997.96
2017-09-10T07:29:00.961Z,997.94
2017-09-10T07:29:48.979Z,998.03
2017-09-10T07:30:36.995Z,998.00
2017-09-10T07:31:31.078Z,998.11
2017-09-10T07:32:19.152Z,998.11
2017-09-10T07:33:14.203Z,998.07
2017-09-10T07:34:08.275Z,998.04
2017-09-10T07:35:08.266Z,998.19
2017-09-10T07:36:02.239Z,998.09
2017-09-10T07:36:57.104Z,998.09
2017-09-10T07:37:52.116Z,997.93
2017-09-10T07:38:52.114Z,998.09
2017-09-10T07:39:47.110Z,998.13
2017-09-10T07:40:41.269Z,998.06
2017-09-10T07:41:36.341Z,997.99
2017-09-10T07:42:36.284Z,998.03
2017-09-10T07:43:25.211Z,998.10
2017-09-10T07:44:19.421Z,998.00
2017-09-10T07:45:13.866Z,998.05
2017-09-10T07:46:02.406Z,998.02
2017-09-10T07:46:51.841Z,997.97
2017-09-10T07:47:45.669Z,998.03
2017-09-10T07:48:41.057Z,998.03
2017-09-10T07:49:29.977Z,998.06
2017-09-10T07:50:17.747Z,998.09
2017-09-10T07:51:11.855Z,997.94
2017-09-10T07:52:06.789Z,998.06
2017-09-10T07:53:06.843Z,997.91
2017-09-10T07:54:01.842Z,997.96
2017-09-10T07:55:02.195Z,997.92
2017-09-10T07:55:57.041Z,997.92
2017-09-10T07:56:52.099Z,998.09
2017-09-10T07:57:40.285Z,998.07
2017-09-10T07:58:34.504Z,997.97
2017-09-10T07:59:23.166Z,997.95
2017-09-10T08:00:11.502Z,997.94
2017-09-10T08:00:59.670Z,997.96
2017-09-10T08:01:48.776Z,997.87
2017-09-10T08:02:43.788Z,997.94
2017-09-10T08:03:32.863Z,997.95
2017-09-10T08:04:26.906Z,997.86
2017-09-10T08:05:26.949Z,997.85
2017-09-10T08:06:21.093Z,997.87
2017-09-10T08:07:21.087Z,997.92
2017-09-10T08:08:15.129Z,997.92
2017-09-10T08:09:04.224Z,997.88
2017-09-10T08:09:58.268Z,997.78
2017-09-10T08:10:53.197Z,997.88
2017-09-10T08:11:47.249Z,997.91
2017-09-10T08:12:42.360Z,997.89
2017-09-10T08:13:42.251Z,997.76
2017-09-10T08:14:42.506Z,997.94
2017-09-10T08:15:42.432Z,997.95
2017-09-10T08:16:42.547Z,997.97
2017-09-10T08:17:42.492Z,997.85
2017-09-10T08:18:36.562Z,997.98
2017-09-10T08:19:30.601Z,998.02
2017-09-10T08:20:24.802Z,998.08
2017-09-10T08:21:25.744Z,997.93
2017-09-10T08:22:13.831Z,998.04
2017-09-10T08:23:08.855Z,997.98
2017-09-10T08:24:14.951Z,998.03
2017-09-10T08:25:09.006Z,997.99
2017-09-10T08:26:04.003Z,997.96
2017-09-10T08:26:58.073Z,998.05
2017-09-10T08:27:53.180Z,998.11
2017-09-10T08:28:53.130Z,998.01
2017-09-10T08:29:53.317Z,998.02
2017-09-10T08:30:47.249Z,998.15
2017-09-10T08:31:41.358Z,998.19
2017-09-10T08:32:35.341Z,998.20
2017-09-10T08:33:24.446Z,998.10
2017-09-10T08:34:18.503Z,998.01
2017-09-10T08:35:07.565Z,998.13
2017-09-10T08:36:01.655Z,998.26
2017-09-10T08:37:01.727Z,998.02
2017-09-10T08:37:49.700Z,998.11
2017-09-10T08:38:49.759Z,998.16
2017-09-10T08:39:43.796Z,998.02
2017-09-10T08:40:37.786Z,998.19
2017-09-10T08:41:31.860Z,998.27
2017-09-10T08:42:32.884Z,998.18
2017-09-10T08:43:28.003Z,998.29
2017-09-10T08:44:23.126Z,998.24
2017-09-10T08:45:18.044Z,998.24
2017-09-10T08:46:07.232Z,998.23
2017-09-10T08:47:01.289Z,998.09
2017-09-10T08:47:55.288Z,998.25
2017-09-10T08:48:50.376Z,998.09
2017-09-10T08:49:44.354Z,998.11
2017-09-10T08:50:44.354Z,998.32
2017-09-10T08:51:33.425Z,998.16
2017-09-10T08:52:27.550Z,998.20
2017-09-10T08:53:27.527Z,998.18
2017-09-10T08:54:15.663Z,998.19
2017-09-10T08:55:16.640Z,998.13
2017-09-10T08:56:10.757Z,998.32
2017-09-10T08:57:10.769Z,998.18
2017-09-10T08:58:04.906Z,998.14
2017-09-10T08:59:04.897Z,998.20
2017-09-10T08:59:59.968Z,998.30
2017-09-10T09:00:53.720Z,998.39
2017-09-10T09:01:41.991Z,998.54
2017-09-10T09:02:35.779Z,998.42
2017-09-10T09:03:30.072Z,998.53
2017-09-10T09:04:25.156Z,998.26
2017-09-10T09:05:20.209Z,998.35
2017-09-10T09:06:09.332Z,998.39
2017-09-10T09:07:09.361Z,998.53
2017-09-10T09:08:04.491Z,998.36
2017-09-10T09:08:58.573Z,998.36
2017-09-10T09:09:46.514Z,998.40
2017-09-10T09:10:46.790Z,998.31
2017-09-10T09:11:41.627Z,998.20
2017-09-10T09:12:35.699Z,998.26
2017-09-10T09:13:35.749Z,998.29
2017-09-10T09:14:23.852Z,998.26
2017-09-10T09:15:23.887Z,998.25
2017-09-10T09:16:18.890Z,998.13
2017-09-10T09:17:12.942Z,998.10
2017-09-10T09:18:01.018Z,998.20
2017-09-10T09:18:55.118Z,998.17
2017-09-10T09:19:43.296Z,998.22
2017-09-10T09:20:37.235Z,998.11
2017-09-10T09:21:26.277Z,997.94
2017-09-10T09:22:15.309Z,997.97
2017-09-10T09:23:10.368Z,998.00
2017-09-10T09:24:05.317Z,998.14
2017-09-10T09:25:00.490Z,998.11
2017-09-10T09:26:00.517Z,997.98
2017-09-10T09:26:49.612Z,998.03
2017-09-10T09:27:38.669Z,998.08
2017-09-10T09:28:33.727Z,998.11
2017-09-10T09:29:33.742Z,997.99
2017-09-10T09:30:28.865Z,997.95
2017-09-10T09:31:22.990Z,997.90
2017-09-10T09:32:23.006Z,997.99
2017-09-10T09:33:11.985Z,998.00
2017-09-10T09:34:06.114Z,997.96
2017-09-10T09:35:00.098Z,998.04
2017-09-10T09:35:55.178Z,998.03
2017-09-10T09:36:44.182Z,998.09
2017-09-10T09:37:33.371Z,998.04
2017-09-10T09:38:28.401Z,998.10
2017-09-10T09:39:22.399Z,998.16
2017-09-10T09:40:17.475Z,998.22
2017-09-10T09:41:05.541Z,998.19
2017-09-10T09:42:00.589Z,998.07
2017-09-10T09:42:54.754Z,998.18
2017-09-10T09:43:43.697Z,998.23
2017-09-10T09:44:32.829Z,998.06
2017-09-10T09:45:32.844Z,998.24
2017-09-10T09:46:27.919Z,998.14
2017-09-10T09:47:16.984Z,998.05
2017-09-10T09:48:06.037Z,998.25
2017-09-10T09:49:01.041Z,998.22
2017-09-10T09:49:49.172Z,998.17
2017-09-10T09:50:49.119Z,998.05
2017-09-10T09:51:37.161Z,998.15
2017-09-10T09:52:31.235Z,998.16
2017-09-10T09:53:26.404Z,998.14
2017-09-10T09:54:21.404Z,998.01
2017-09-10T09:55:15.545Z,998.01
2017-09-10T09:56:15.530Z,998.27
2017-09-10T09:57:09.563Z,998.15
2017-09-10T09:58:03.714Z,998.08
2017-09-10T09:58:52.818Z,998.01
2017-09-10T09:59:47.806Z,998.10
2017-09-10T10:00:36.869Z,998.13
2017-09-10T10:01:30.852Z,997.99
2017-09-10T10:02:25.973Z,998.01
2017-09-10T10:03:19.999Z,997.83
2017-09-10T10:04:15.120Z,997.84
2017-09-10T10:05:10.164Z,997.76
2017-09-10T10:06:04.177Z,997.85
2017-09-10T10:06:58.212Z,997.84
2017-09-10T10:07:52.436Z,997.90
2017-09-10T10:08:46.274Z,997.90
2017-09-10T10:09:41.472Z,997.80
2017-09-10T10:10:35.516Z,997.85
2017-09-10T10:11:30.506Z,997.82
2017-09-10T10:12:19.627Z,997.82
2017-09-10T10:13:14.642Z,997.89
2017-09-10T10:14:14.684Z,998.02
2017-09-10T10:15:03.818Z,998.01
2017-09-10T10:15:58.898Z,997.92
2017-09-10T10:16:52.830Z,997.79
2017-09-10T10:17:53.943Z,997.74
2017-09-10T10:18:42.936Z,997.75
2017-09-10T10:19:38.033Z,997.81
2017-09-10T10:20:32.156Z,997.96
2017-09-10T10:21:27.316Z,997.86
2017-09-10T10:22:27.122Z,997.99
2017-09-10T10:23:21.359Z,997.89
2017-09-10T10:24:15.326Z,997.97
2017-09-10T10:25:04.438Z,998.04
2017-09-10T10:25:53.474Z,998.04
2017-09-10T10:26:48.491Z,998.03
2017-09-10T10:27:36.529Z,998.09
2017-09-10T10:28:31.679Z,997.90
2017-09-10T10:29:26.617Z,997.85
2017-09-10T10:30:26.748Z,998.05
2017-09-10T10:31:15.866Z,998.00
2017-09-10T10:32:04.879Z,997.95
2017-09-10T10:32:59.028Z,998.13
2017-09-10T10:33:53.991Z,997.96
2017-09-10T10:34:48.012Z,997.93
2017-09-10T10:35:42.020Z,997.83
2017-09-10T10:36:36.097Z,997.99
2017-09-10T10:37:30.168Z,997.91
2017-09-10T10:38:31.218Z,997.75
2017-09-10T10:39:20.257Z,997.93
2017-09-10T10:40:15.301Z,997.83
2017-09-10T10:41:04.414Z,997.83
2017-09-10T10:41:59.497Z,997.81
2017-09-10T10:42:59.482Z,998.03
2017-09-10T10:43:53.537Z,998.04
2017-09-10T10:44:48.555Z,998.15
2017-09-10T10:45:48.626Z,998.00
2017-09-10T10:46:42.684Z,998.03
2017-09-10T10:47:31.719Z,998.23
2017-09-10T10:48:31.828Z,998.21
2017-09-10T10:49:25.901Z,998.24
2017-09-10T10:50:19.819Z,997.81
2017-09-10T10:51:15.082Z,997.96
2017-09-10T10:52:09.045Z,997.89
2017-09-10T10:52:58.145Z,997.98